Time;durP1;ratioP1;P1;durP2;ratioP2;P2;SDS_P1;SDS_P2;PMS_P1;PMS_P2;Temp;Humidity;BMP_temperature;BMP_pressure;BME280_temperature;BME280_humidity;BME280_pressure;Samples;Min_cycle;Max_cycle;Signal;HPM_P1;HPM_P2
2022/03/12 00:02:17;;;;;;;8.38;6.97;;;;;;;;;;5011295;28;20046;-81
2022/03/12 00:04:44;;;;;;;8.32;6.90;;;;;;;;;;5009353;28;20081;-80
2022/03/12 00:07:11;;;;;;;8.23;6.45;;;;;;;;;;5015577;28;20151;-81
2022/03/12 00:09:37;;;;;;;8.52;7.10;;;;;;;;;;5012213;28;20052;-81
2022/03/12 00:12:04;;;;;;;7.82;7.00;;;;;;;;;;5009676;28;20049;-81
2022/03/12 00:14:32;;;;;;;9.93;6.70;;;;;;;;;;5024230;28;20038;-80
2022/03/12 00:17:03;;;;;;;8.13;6.93;;;;;;;;;;5024965;28;20544;-80
2022/03/12 00:19:31;;;;;;;9.40;7.22;;;;;;;;;;5013484;28;20494;-83
2022/03/12 00:21:59;;;;;;;7.75;6.95;;;;;;;;;;5023656;28;20041;-80
2022/03/12 00:24:27;;;;;;;8.13;6.57;;;;;;;;;;5020553;28;20045;-80
2022/03/12 00:26:53;;;;;;;7.70;6.78;;;;;;;;;;5031919;28;20056;-81
2022/03/12 00:29:20;;;;;;;8.63;7.00;;;;;;;;;;5013227;28;20046;-80
2022/03/12 00:31:48;;;;;;;7.15;6.45;;;;;;;;;;5024738;28;20068;-81
2022/03/12 00:34:14;;;;;;;7.75;6.90;;;;;;;;;;5030987;28;20123;-80
2022/03/12 00:36:40;;;;;;;7.68;6.50;;;;;;;;;;5030291;28;20088;-80
2022/03/12 00:39:08;;;;;;;8.48;6.72;;;;;;;;;;5019332;28;20096;-80
2022/03/12 00:41:36;;;;;;;7.28;6.57;;;;;;;;;;5014038;28;20045;-80
2022/03/12 00:44:02;;;;;;;8.63;6.85;;;;;;;;;;5025483;28;20038;-80
2022/03/12 00:46:28;;;;;;;7.53;6.72;;;;;;;;;;5022743;28;20045;-80
2022/03/12 00:48:54;;;;;;;9.48;6.97;;;;;;;;;;5033353;28;20381;-79
2022/03/12 00:51:20;;;;;;;7.20;6.50;;;;;;;;;;5027383;28;20478;-81
2022/03/12 00:53:46;;;;;;;7.20;6.10;;;;;;;;;;5032142;28;20049;-80
2022/03/12 00:56:12;;;;;;;7.60;6.50;;;;;;;;;;5025448;28;20048;-80
2022/03/12 00:58:39;;;;;;;7.97;6.50;;;;;;;;;;5024159;28;20049;-80
2022/03/12 01:01:06;;;;;;;8.15;6.50;;;;;;;;;;5024513;28;20050;-80
2022/03/12 01:03:32;;;;;;;11.10;6.53;;;;;;;;;;5025724;28;20494;-80
2022/03/12 01:06:02;;;;;;;7.65;6.28;;;;;;;;;;5031952;28;20041;-80
2022/03/12 01:08:31;;;;;;;8.18;6.43;;;;;;;;;;5032942;28;20063;-81
2022/03/12 01:10:59;;;;;;;8.57;6.53;;;;;;;;;;5019729;28;20045;-80
2022/03/12 01:13:25;;;;;;;9.05;6.18;;;;;;;;;;5023321;28;20049;-80
2022/03/12 01:15:51;;;;;;;8.45;6.60;;;;;;;;;;5026450;28;20049;-80
2022/03/12 01:18:18;;;;;;;8.13;6.25;;;;;;;;;;5012731;28;20050;-80
2022/03/12 01:20:44;;;;;;;6.90;6.20;;;;;;;;;;5027798;28;20048;-81
2022/03/12 01:23:13;;;;;;;8.25;6.25;;;;;;;;;;5034463;28;20045;-81
2022/03/12 01:25:39;;;;;;;7.10;6.40;;;;;;;;;;5025053;28;20054;-79
2022/03/12 01:28:07;;;;;;;7.07;6.15;;;;;;;;;;5018884;28;20044;-80
2022/03/12 01:30:34;;;;;;;9.10;6.57;;;;;;;;;;5022285;28;20046;-80
2022/03/12 01:33:00;;;;;;;7.00;6.30;;;;;;;;;;5018840;28;20048;-80
2022/03/12 01:35:26;;;;;;;7.07;6.18;;;;;;;;;;5020826;28;20041;-80
2022/03/12 01:37:52;;;;;;;7.72;6.35;;;;;;;;;;5018192;28;20033;-80
2022/03/12 01:40:18;;;;;;;7.03;6.30;;;;;;;;;;5023706;28;20045;-79
2022/03/12 01:42:44;;;;;;;7.22;6.32;;;;;;;;;;5028902;28;20069;-79
2022/03/12 01:45:12;;;;;;;6.78;5.95;;;;;;;;;;5018107;28;20041;-80
2022/03/12 01:47:38;;;;;;;7.53;6.03;;;;;;;;;;5028607;28;20053;-79
2022/03/12 01:50:05;;;;;;;7.70;6.85;;;;;;;;;;5030233;28;20103;-80
2022/03/12 01:52:31;;;;;;;7.03;6.22;;;;;;;;;;5026747;28;20038;-79
2022/03/12 01:54:58;;;;;;;7.75;5.72;;;;;;;;;;5026260;28;20054;-80
2022/03/12 01:57:24;;;;;;;7.68;6.55;;;;;;;;;;5019491;28;20053;-80
2022/03/12 01:59:51;;;;;;;7.15;5.93;;;;;;;;;;5018608;28;20045;-80
2022/03/12 02:02:17;;;;;;;7.45;6.10;;;;;;;;;;5014193;28;20453;-80
2022/03/12 02:04:50;;;;;;;6.95;5.80;;;;;;;;;;5029733;28;20053;-80
2022/03/12 02:07:17;;;;;;;7.32;5.82;;;;;;;;;;5020359;28;20050;-80
2022/03/12 02:09:44;;;;;;;7.00;6.30;;;;;;;;;;5022500;28;20060;-80
2022/03/12 02:12:11;;;;;;;7.35;6.53;;;;;;;;;;5028423;28;20179;-80
2022/03/12 02:14:37;;;;;;;6.85;6.07;;;;;;;;;;5019086;28;20048;-79
2022/03/12 02:17:06;;;;;;;7.80;6.07;;;;;;;;;;5014693;28;20041;-79
2022/03/12 02:19:32;;;;;;;6.88;6.18;;;;;;;;;;5022589;28;20129;-80
2022/03/12 02:22:00;;;;;;;9.82;6.40;;;;;;;;;;5024323;28;20037;-80
2022/03/12 02:24:27;;;;;;;6.82;6.13;;;;;;;;;;5022427;28;20042;-80
2022/03/12 02:26:54;;;;;;;8.30;5.70;;;;;;;;;;5038467;28;20055;-79
2022/03/12 02:29:22;;;;;;;7.05;6.25;;;;;;;;;;5025047;28;20060;-79
2022/03/12 02:31:49;;;;;;;6.55;5.90;;;;;;;;;;5020886;28;20485;-81
2022/03/12 02:34:22;;;;;;;7.57;6.30;;;;;;;;;;5025038;28;20053;-80
2022/03/12 02:36:49;;;;;;;6.97;6.03;;;;;;;;;;5019452;28;20056;-80
2022/03/12 02:39:16;;;;;;;7.00;6.07;;;;;;;;;;5026190;28;20049;-80
2022/03/12 02:41:42;;;;;;;6.72;6.05;;;;;;;;;;5018615;28;20054;-80
2022/03/12 02:44:15;;;;;;;7.28;6.32;;;;;;;;;;5035259;28;20401;-80
2022/03/12 02:46:41;;;;;;;8.30;6.10;;;;;;;;;;5025280;28;20037;-80
2022/03/12 02:49:07;;;;;;;8.98;6.57;;;;;;;;;;5019852;28;20045;-80
2022/03/12 02:51:34;;;;;;;11.88;6.60;;;;;;;;;;5027664;28;20125;-80
2022/03/12 02:54:00;;;;;;;8.90;6.93;;;;;;;;;;5023149;28;20121;-80
2022/03/12 02:56:27;;;;;;;7.53;6.45;;;;;;;;;;5013019;28;20161;-80
2022/03/12 02:58:53;;;;;;;8.40;6.55;;;;;;;;;;5030276;28;20053;-80
2022/03/12 03:01:19;;;;;;;6.65;6.05;;;;;;;;;;5031555;28;20050;-80
2022/03/12 03:03:46;;;;;;;8.50;6.10;;;;;;;;;;5028003;28;20367;-80
2022/03/12 03:06:16;;;;;;;8.50;6.32;;;;;;;;;;5026341;28;20042;-81
2022/03/12 03:08:42;;;;;;;8.02;6.65;;;;;;;;;;5026435;28;20037;-80
2022/03/12 03:11:11;;;;;;;9.88;6.65;;;;;;;;;;5035273;28;20041;-79
2022/03/12 03:13:40;;;;;;;6.93;6.22;;;;;;;;;;5029604;28;20498;-80
2022/03/12 03:16:11;;;;;;;6.95;6.25;;;;;;;;;;5024476;28;20128;-80
2022/03/12 03:18:39;;;;;;;7.32;6.57;;;;;;;;;;5022005;28;20045;-80
2022/03/12 03:21:07;;;;;;;7.93;6.53;;;;;;;;;;5025663;28;20129;-80
2022/03/12 03:23:33;;;;;;;8.30;7.22;;;;;;;;;;5029730;28;20482;-80
2022/03/12 03:26:00;;;;;;;7.78;6.75;;;;;;;;;;5031562;28;20064;-81
2022/03/12 03:28:26;;;;;;;11.23;7.45;;;;;;;;;;5026711;28;20123;-80
2022/03/12 03:30:52;;;;;;;7.78;7.00;;;;;;;;;;5038164;28;20037;-81
2022/03/12 03:33:20;;;;;;;9.20;6.85;;;;;;;;;;5016785;28;20061;-81
2022/03/12 03:35:46;;;;;;;8.60;7.55;;;;;;;;;;5016054;28;20045;-80
2022/03/12 03:38:12;;;;;;;8.02;6.85;;;;;;;;;;5029298;28;20632;-80
2022/03/12 03:40:40;;;;;;;8.00;7.07;;;;;;;;;;5017108;28;20497;-80
2022/03/12 03:43:13;;;;;;;8.43;7.40;;;;;;;;;;5019290;28;20033;-80
2022/03/12 03:45:40;;;;;;;9.05;7.68;;;;;;;;;;5026602;28;20054;-80
2022/03/12 03:48:11;;;;;;;7.88;7.07;;;;;;;;;;5014329;28;20445;-81
2022/03/12 03:50:37;;;;;;;10.23;7.85;;;;;;;;;;5014178;28;20490;-81
2022/03/12 03:53:04;;;;;;;13.45;7.95;;;;;;;;;;5014883;28;20056;-81
2022/03/12 03:55:33;;;;;;;8.80;7.90;;;;;;;;;;5022560;28;20065;-81
2022/03/12 03:58:00;;;;;;;10.27;8.00;;;;;;;;;;5016853;28;20069;-81
2022/03/12 04:00:32;;;;;;;8.60;7.72;;;;;;;;;;5019777;28;20492;-81
2022/03/12 04:03:04;;;;;;;10.57;8.30;;;;;;;;;;5018144;28;20405;-81
2022/03/12 04:05:40;;;;;;;10.18;8.35;;;;;;;;;;5026239;28;20096;-81
2022/03/12 04:08:07;;;;;;;7.75;6.93;;;;;;;;;;5018049;28;20085;-81
2022/03/12 04:10:34;;;;;;;9.95;7.80;;;;;;;;;;5045771;28;20045;-81
2022/03/12 04:13:00;;;;;;;9.55;8.18;;;;;;;;;;5026470;28;20390;-81
2022/03/12 04:15:26;;;;;;;8.40;7.50;;;;;;;;;;5032837;28;20053;-81
2022/03/12 04:17:53;;;;;;;7.97;7.13;;;;;;;;;;5025144;28;20041;-81
2022/03/12 04:20:20;;;;;;;8.40;7.53;;;;;;;;;;5017581;28;20045;-81
2022/03/12 04:22:50;;;;;;;8.90;8.00;;;;;;;;;;5027059;28;20396;-80
2022/03/12 04:25:17;;;;;;;8.57;7.68;;;;;;;;;;5028319;28;20056;-81
2022/03/12 04:27:44;;;;;;;12.40;8.10;;;;;;;;;;5016098;28;20081;-81
2022/03/12 04:30:11;;;;;;;9.43;8.15;;;;;;;;;;5026145;28;20072;-80
2022/03/12 04:32:37;;;;;;;8.82;7.85;;;;;;;;;;5020292;28;20124;-80
2022/03/12 04:35:05;;;;;;;8.40;7.60;;;;;;;;;;5031423;28;20045;-80
2022/03/12 04:37:31;;;;;;;8.73;7.82;;;;;;;;;;5026570;28;20045;-81
2022/03/12 04:39:57;;;;;;;9.07;8.10;;;;;;;;;;5028411;28;20488;-81
2022/03/12 04:42:23;;;;;;;8.93;8.02;;;;;;;;;;5015501;28;20041;-80
2022/03/12 04:44:50;;;;;;;9.75;8.75;;;;;;;;;;5016950;28;20041;-80
2022/03/12 04:47:19;;;;;;;8.75;7.68;;;;;;;;;;5024866;28;20041;-79
2022/03/12 04:49:48;;;;;;;9.73;7.80;;;;;;;;;;5021014;28;20045;-80
2022/03/12 04:52:14;;;;;;;9.68;8.00;;;;;;;;;;5018679;28;20049;-81
2022/03/12 04:54:41;;;;;;;9.57;8.30;;;;;;;;;;5038293;28;20037;-80
2022/03/12 04:57:07;;;;;;;9.43;8.50;;;;;;;;;;5031798;28;20073;-80
2022/03/12 04:59:33;;;;;;;8.98;8.07;;;;;;;;;;5020121;28;20053;-81
2022/03/12 05:01:59;;;;;;;9.27;8.23;;;;;;;;;;5027716;28;20517;-80
2022/03/12 05:04:25;;;;;;;9.05;8.15;;;;;;;;;;5023480;28;20489;-80
2022/03/12 05:06:51;;;;;;;9.80;8.23;;;;;;;;;;5046835;28;20037;-80
2022/03/12 05:09:19;;;;;;;9.90;8.23;;;;;;;;;;5037138;28;20131;-81
2022/03/12 05:11:45;;;;;;;9.90;8.90;;;;;;;;;;5027982;28;20056;-81
2022/03/12 05:14:16;;;;;;;9.60;8.60;;;;;;;;;;5045444;28;20134;-80
2022/03/12 05:16:44;;;;;;;9.73;8.48;;;;;;;;;;5033318;28;20053;-80
2022/03/12 05:19:13;;;;;;;11.77;8.27;;;;;;;;;;5016627;28;20128;-81
2022/03/12 05:21:42;;;;;;;10.50;8.63;;;;;;;;;;5026458;28;20493;-81
2022/03/12 05:24:09;;;;;;;8.85;7.95;;;;;;;;;;5031474;28;20033;-81
2022/03/12 05:26:35;;;;;;;10.23;8.00;;;;;;;;;;5030250;28;20049;-81
2022/03/12 05:29:01;;;;;;;10.65;8.13;;;;;;;;;;5046379;28;20108;-80
2022/03/12 05:31:26;;;;;;;9.73;8.02;;;;;;;;;;5034735;28;20037;-80
2022/03/12 05:33:53;;;;;;;9.57;8.30;;;;;;;;;;5018065;28;20049;-80
2022/03/12 05:36:18;;;;;;;9.40;7.97;;;;;;;;;;5029988;28;20049;-80
2022/03/12 05:38:47;;;;;;;9.20;8.05;;;;;;;;;;5026123;28;20111;-80
2022/03/12 05:41:14;;;;;;;10.93;7.82;;;;;;;;;;5028324;28;20542;-81
2022/03/12 05:43:46;;;;;;;9.48;8.50;;;;;;;;;;5021453;28;20041;-80
2022/03/12 05:46:16;;;;;;;9.45;7.90;;;;;;;;;;5020198;28;20080;-80
2022/03/12 05:48:42;;;;;;;9.40;8.40;;;;;;;;;;5028543;28;20415;-81
2022/03/12 05:51:09;;;;;;;9.18;8.20;;;;;;;;;;5020401;28;20092;-81
2022/03/12 05:53:36;;;;;;;9.07;8.00;;;;;;;;;;5033912;28;20102;-80
2022/03/12 05:56:04;;;;;;;9.98;7.82;;;;;;;;;;5020838;28;20085;-81
2022/03/12 05:58:35;;;;;;;8.73;7.82;;;;;;;;;;5017555;28;20049;-81
2022/03/12 06:01:01;;;;;;;10.60;8.65;;;;;;;;;;5013762;28;20060;-81
2022/03/12 06:03:27;;;;;;;8.85;7.93;;;;;;;;;;5019641;28;20516;-81
2022/03/12 06:05:58;;;;;;;9.60;8.60;;;;;;;;;;5042321;28;20083;-81
2022/03/12 06:08:25;;;;;;;9.57;8.02;;;;;;;;;;5034139;28;20065;-81
2022/03/12 06:10:54;;;;;;;9.35;8.10;;;;;;;;;;5035857;28;20052;-81
2022/03/12 06:13:23;;;;;;;9.45;8.43;;;;;;;;;;5021198;28;20046;-81
2022/03/12 06:15:52;;;;;;;11.02;8.10;;;;;;;;;;5030250;28;20063;-80
2022/03/12 06:18:19;;;;;;;9.02;8.13;;;;;;;;;;5026766;28;20078;-80
2022/03/12 06:20:45;;;;;;;8.70;7.80;;;;;;;;;;5035328;28;20100;-81
2022/03/12 06:23:11;;;;;;;9.45;8.43;;;;;;;;;;5030177;28;20042;-80
2022/03/12 06:25:37;;;;;;;8.48;7.57;;;;;;;;;;5027592;28;20060;-80
2022/03/12 06:28:03;;;;;;;9.35;8.18;;;;;;;;;;5036514;28;20425;-81
2022/03/12 06:30:30;;;;;;;9.75;7.97;;;;;;;;;;5036053;28;20041;-80
2022/03/12 06:32:57;;;;;;;9.63;7.78;;;;;;;;;;5021140;28;20049;-81
2022/03/12 06:35:24;;;;;;;9.90;8.00;;;;;;;;;;5028451;28;20049;-81
2022/03/12 06:37:50;;;;;;;9.63;8.35;;;;;;;;;;5019720;28;20045;-81
2022/03/12 06:40:16;;;;;;;9.85;7.95;;;;;;;;;;5029456;28;20052;-81
2022/03/12 06:42:43;;;;;;;9.52;8.27;;;;;;;;;;5017184;28;20549;-81
2022/03/12 06:45:10;;;;;;;9.30;8.05;;;;;;;;;;5020276;28;20041;-81
2022/03/12 06:47:38;;;;;;;11.02;7.90;;;;;;;;;;5022068;28;20444;-81
2022/03/12 06:50:05;;;;;;;9.82;8.52;;;;;;;;;;5032175;28;20045;-81
2022/03/12 06:52:31;;;;;;;8.73;7.82;;;;;;;;;;5026698;28;20037;-81
2022/03/12 06:54:57;;;;;;;9.20;8.13;;;;;;;;;;5029972;28;20049;-81
2022/03/12 06:57:23;;;;;;;9.40;8.40;;;;;;;;;;5027353;28;20085;-81
2022/03/12 06:59:52;;;;;;;10.55;7.72;;;;;;;;;;5033874;28;20045;-81
2022/03/12 07:02:18;;;;;;;8.68;7.63;;;;;;;;;;5029130;28;20116;-82
2022/03/12 07:04:44;;;;;;;10.32;7.97;;;;;;;;;;5022129;28;20054;-82
2022/03/12 07:07:11;;;;;;;9.32;8.20;;;;;;;;;;5023767;28;20390;-82
2022/03/12 07:09:37;;;;;;;8.82;7.93;;;;;;;;;;5028188;28;20037;-84
2022/03/12 07:12:03;;;;;;;9.73;7.95;;;;;;;;;;5039981;28;20570;-83
2022/03/12 07:14:30;;;;;;;8.73;7.78;;;;;;;;;;5029624;28;20049;-84
2022/03/12 07:16:56;;;;;;;8.75;7.85;;;;;;;;;;5024714;28;20081;-84
2022/03/12 07:19:22;;;;;;;9.15;8.15;;;;;;;;;;5035931;28;20052;-84
2022/03/12 07:21:51;;;;;;;9.73;8.25;;;;;;;;;;5023349;28;20532;-84
2022/03/12 07:24:18;;;;;;;8.68;7.28;;;;;;;;;;5017211;28;20450;-84
2022/03/12 07:26:45;;;;;;;9.57;7.75;;;;;;;;;;5022214;28;20412;-84
2022/03/12 07:29:11;;;;;;;9.50;7.53;;;;;;;;;;5026237;28;20058;-84
2022/03/12 07:31:37;;;;;;;9.88;8.48;;;;;;;;;;5030310;28;20048;-82
2022/03/12 07:34:04;;;;;;;9.68;8.07;;;;;;;;;;5025331;28;20128;-84
2022/03/12 07:36:31;;;;;;;10.95;8.18;;;;;;;;;;5025201;28;20052;-83
2022/03/12 07:39:03;;;;;;;9.50;8.05;;;;;;;;;;5023186;28;20386;-83
2022/03/12 07:41:29;;;;;;;10.20;8.02;;;;;;;;;;5035894;28;20421;-84
2022/03/12 07:43:55;;;;;;;10.27;7.95;;;;;;;;;;5032853;28;20047;-83
2022/03/12 07:46:21;;;;;;;8.63;7.63;;;;;;;;;;5041102;28;20099;-83
2022/03/12 07:48:48;;;;;;;9.20;8.18;;;;;;;;;;5025924;28;20034;-84
2022/03/12 07:51:14;;;;;;;8.40;7.60;;;;;;;;;;5027853;28;20050;-83
2022/03/12 07:53:40;;;;;;;10.23;8.55;;;;;;;;;;5027694;28;20041;-84
2022/03/12 07:56:09;;;;;;;8.98;8.07;;;;;;;;;;5024702;28;20053;-83
2022/03/12 07:58:37;;;;;;;9.52;8.45;;;;;;;;;;5014371;28;20103;-84
2022/03/12 08:01:05;;;;;;;9.68;8.50;;;;;;;;;;5028486;28;20052;-84
2022/03/12 08:03:31;;;;;;;9.38;7.90;;;;;;;;;;5015622;28;20079;-83
2022/03/12 08:05:57;;;;;;;9.38;8.45;;;;;;;;;;5026073;28;20050;-83
2022/03/12 08:08:23;;;;;;;9.30;8.18;;;;;;;;;;5040742;28;20049;-85
2022/03/12 08:13:36;;;;;;;11.65;8.50;;;;;;;;;;5014080;28;20050;-83
2022/03/12 08:16:03;;;;;;;10.85;8.45;;;;;;;;;;5016769;28;20049;-84
2022/03/12 08:18:29;;;;;;;9.32;7.80;;;;;;;;;;5031903;28;20102;-84
2022/03/12 08:20:55;;;;;;;9.07;8.18;;;;;;;;;;5025459;28;20065;-84
2022/03/12 08:23:22;;;;;;;9.20;8.27;;;;;;;;;;5032324;28;20501;-85
2022/03/12 08:25:48;;;;;;;9.45;8.32;;;;;;;;;;5024258;28;20061;-84
2022/03/12 08:28:16;;;;;;;12.55;8.10;;;;;;;;;;5023836;28;21173;-83
2022/03/12 08:30:51;;;;;;;10.00;9.00;;;;;;;;;;5019592;28;20581;-83
2022/03/12 08:33:19;;;;;;;9.15;8.25;;;;;;;;;;5022217;28;20393;-84
2022/03/12 08:35:45;;;;;;;10.10;8.68;;;;;;;;;;5025554;28;20056;-84
2022/03/12 08:38:11;;;;;;;9.23;8.23;;;;;;;;;;5019729;28;20049;-83
2022/03/12 08:40:37;;;;;;;9.35;8.45;;;;;;;;;;5024668;28;20060;-86
2022/03/12 08:43:04;;;;;;;9.40;8.35;;;;;;;;;;5016256;28;20053;-84
2022/03/12 08:45:30;;;;;;;10.07;9.05;;;;;;;;;;5017792;28;20049;-84
2022/03/12 08:47:56;;;;;;;9.50;8.60;;;;;;;;;;5022608;28;20038;-84
2022/03/12 08:50:24;;;;;;;9.63;8.40;;;;;;;;;;5028240;28;20045;-85
2022/03/12 08:52:50;;;;;;;11.23;8.55;;;;;;;;;;5012513;28;20073;-85
2022/03/12 08:55:16;;;;;;;9.18;8.23;;;;;;;;;;5023757;28;20050;-85
2022/03/12 08:57:42;;;;;;;9.35;8.35;;;;;;;;;;5018948;28;20042;-85
2022/03/12 09:00:09;;;;;;;8.85;7.95;;;;;;;;;;5016627;28;20401;-84
2022/03/12 09:02:36;;;;;;;9.25;8.25;;;;;;;;;;5019618;28;20454;-84
2022/03/12 09:05:06;;;;;;;9.35;8.32;;;;;;;;;;5019395;28;20091;-83
2022/03/12 09:07:36;;;;;;;8.98;8.07;;;;;;;;;;5022909;28;20413;-85
2022/03/12 09:10:02;;;;;;;9.13;8.18;;;;;;;;;;5016784;28;20472;-84
2022/03/12 09:12:28;;;;;;;7.97;7.18;;;;;;;;;;5023630;28;20232;-85
2022/03/12 09:14:57;;;;;;;9.15;7.50;;;;;;;;;;5023625;28;20147;-84
2022/03/12 09:17:32;;;;;;;8.23;7.28;;;;;;;;;;5023179;28;20147;-85
2022/03/12 09:19:59;;;;;;;7.45;6.68;;;;;;;;;;5026154;28;20120;-85
2022/03/12 09:22:40;;;;;;;7.95;7.15;;;;;;;;;;5017690;28;21639;-86
2022/03/12 09:25:12;;;;;;;7.15;6.45;;;;;;;;;;5047487;22;20045;-85
2022/03/12 09:27:59;;;;;;;7.28;6.43;;;;;;;;;;5043555;28;20049;-86
2022/03/12 09:30:25;;;;;;;8.60;6.53;;;;;;;;;;5059846;28;20095;-85
2022/03/12 09:32:53;;;;;;;7.85;7.03;;;;;;;;;;5050306;28;20059;-85
2022/03/12 09:35:28;;;;;;;7.10;6.40;;;;;;;;;;5049353;28;20041;-86
2022/03/12 09:37:55;;;;;;;7.25;6.55;;;;;;;;;;5036249;28;20106;-85
2022/03/12 09:40:39;;;;;;;7.00;6.22;;;;;;;;;;5039105;28;20052;-87
2022/03/12 09:43:05;;;;;;;7.32;6.45;;;;;;;;;;5043330;28;20041;-84
2022/03/12 09:45:37;;;;;;;7.60;6.78;;;;;;;;;;5044623;28;20045;-86
2022/03/12 09:48:04;;;;;;;11.65;6.32;;;;;;;;;;5066402;28;20045;-86
2022/03/12 09:50:47;;;;;;;7.25;6.10;;;;;;;;;;5056137;28;20049;-85
2022/03/12 09:53:13;;;;;;;7.00;6.30;;;;;;;;;;5059572;28;20040;-85
2022/03/12 09:55:39;;;;;;;7.07;6.38;;;;;;;;;;5042607;28;20115;-83
2022/03/12 09:58:20;;;;;;;6.25;5.65;;;;;;;;;;5044960;28;20033;-84
2022/03/12 10:00:48;;;;;;;7.25;6.35;;;;;;;;;;5042410;28;20388;-84
2022/03/12 10:03:15;;;;;;;6.47;5.88;;;;;;;;;;5044382;28;20072;-85
2022/03/12 10:05:41;;;;;;;6.30;5.70;;;;;;;;;;5044171;28;20128;-85
2022/03/12 10:08:07;;;;;;;6.40;5.40;;;;;;;;;;5044377;28;20048;-82
2022/03/12 10:10:34;;;;;;;5.68;5.10;;;;;;;;;;5039012;28;20465;-83
2022/03/12 10:13:00;;;;;;;10.10;5.82;;;;;;;;;;5042036;28;20048;-82
2022/03/12 10:15:29;;;;;;;6.85;5.43;;;;;;;;;;5048920;28;20428;-83
2022/03/12 10:17:55;;;;;;;6.88;5.38;;;;;;;;;;5051769;28;20127;-86
2022/03/12 10:20:21;;;;;;;6.57;5.38;;;;;;;;;;5044061;28;20453;-85
2022/03/12 10:22:47;;;;;;;6.00;5.40;;;;;;;;;;5068477;28;20119;-84
2022/03/12 10:25:17;;;;;;;7.45;5.63;;;;;;;;;;5056304;28;20384;-87
2022/03/12 10:27:43;;;;;;;6.03;5.43;;;;;;;;;;5082271;28;20055;-85
2022/03/12 10:30:10;;;;;;;5.88;5.28;;;;;;;;;;5058156;28;20048;-85
2022/03/12 10:32:44;;;;;;;6.40;5.50;;;;;;;;;;5038690;28;20128;-85
2022/03/12 10:35:10;;;;;;;6.72;5.97;;;;;;;;;;5075190;28;20083;-82
2022/03/12 10:37:38;;;;;;;6.28;5.60;;;;;;;;;;5058578;28;20052;-83
2022/03/12 10:40:06;;;;;;;6.43;5.70;;;;;;;;;;5052743;28;20185;-80
2022/03/12 10:42:44;;;;;;;5.80;4.93;;;;;;;;;;5063150;28;20503;-79
2022/03/12 10:45:12;;;;;;;6.22;5.22;;;;;;;;;;5036527;28;20064;-81
2022/03/12 10:47:39;;;;;;;5.85;5.25;;;;;;;;;;5055157;22;20124;-79
2022/03/12 10:50:07;;;;;;;6.55;5.38;;;;;;;;;;5054300;28;20065;-79
2022/03/12 10:52:34;;;;;;;5.50;5.00;;;;;;;;;;5053299;28;20106;-79
2022/03/12 10:55:07;;;;;;;5.82;4.65;;;;;;;;;;5068643;28;20052;-78
2022/03/12 10:57:34;;;;;;;9.65;5.18;;;;;;;;;;5054200;28;20076;-80
2022/03/12 11:00:00;;;;;;;5.53;4.75;;;;;;;;;;5058499;28;20102;-79
2022/03/12 11:02:26;;;;;;;5.90;5.30;;;;;;;;;;5041560;28;20048;-80
2022/03/12 11:05:05;;;;;;;5.38;4.88;;;;;;;;;;5035298;28;20064;-79
2022/03/12 11:07:31;;;;;;;5.78;4.65;;;;;;;;;;5042251;28;20080;-80
2022/03/12 11:09:57;;;;;;;6.10;4.45;;;;;;;;;;5057432;28;20044;-80
2022/03/12 11:12:35;;;;;;;4.60;4.20;;;;;;;;;;5041249;28;20051;-80
2022/03/12 11:15:15;;;;;;;4.78;4.38;;;;;;;;;;5062181;28;20048;-84
2022/03/12 11:17:45;;;;;;;5.53;5.00;;;;;;;;;;5067835;28;20453;-86
2022/03/12 11:20:18;;;;;;;5.05;3.90;;;;;;;;;;5050516;28;20044;-87
2022/03/12 11:22:48;;;;;;;6.32;4.68;;;;;;;;;;5046344;28;20377;-84
2022/03/12 11:25:20;;;;;;;5.45;4.32;;;;;;;;;;5069783;28;20094;-88
2022/03/12 11:27:49;;;;;;;4.93;4.05;;;;;;;;;;5050176;28;20053;-91
2022/03/12 11:30:20;;;;;;;5.00;4.50;;;;;;;;;;5038275;28;20076;-88
2022/03/12 11:32:48;;;;;;;4.47;4.07;;;;;;;;;;5070473;28;20100;-89
2022/03/12 11:35:17;;;;;;;5.60;4.65;;;;;;;;;;5059635;28;20044;-88
2022/03/12 11:37:43;;;;;;;5.22;4.40;;;;;;;;;;5072060;28;20059;-88
2022/03/12 11:40:11;;;;;;;5.35;4.43;;;;;;;;;;5053174;28;20059;-89
2022/03/12 11:42:38;;;;;;;5.25;4.47;;;;;;;;;;5041208;28;20696;-88
2022/03/12 11:45:11;;;;;;;5.82;3.80;;;;;;;;;;5062940;28;20051;-88
2022/03/12 11:47:40;;;;;;;4.13;3.70;;;;;;;;;;5046185;28;20041;-84
2022/03/12 11:50:09;;;;;;;4.90;3.97;;;;;;;;;;5049135;28;20128;-84
2022/03/12 11:52:36;;;;;;;5.97;4.00;;;;;;;;;;5050503;28;20047;-83
2022/03/12 11:55:05;;;;;;;4.40;4.00;;;;;;;;;;5072404;28;20066;-83
2022/03/12 11:57:32;;;;;;;6.32;3.78;;;;;;;;;;5051691;28;20045;-83
2022/03/12 11:59:59;;;;;;;5.45;4.70;;;;;;;;;;5053974;28;20075;-86
2022/03/12 12:02:26;;;;;;;5.45;3.80;;;;;;;;;;5049447;28;20476;-91
2022/03/12 12:04:53;;;;;;;4.55;3.85;;;;;;;;;;5076905;28;20051;-91
2022/03/12 12:07:23;;;;;;;4.35;3.33;;;;;;;;;;5058732;28;20037;-92
2022/03/12 12:09:50;;;;;;;5.95;4.00;;;;;;;;;;5070021;28;20060;-86
2022/03/12 12:12:21;;;;;;;4.50;3.67;;;;;;;;;;5052234;28;20045;-86
2022/03/12 12:14:47;;;;;;;4.40;4.00;;;;;;;;;;5063974;28;20130;-86
2022/03/12 12:17:13;;;;;;;4.10;3.70;;;;;;;;;;5060353;28;20036;-83
2022/03/12 12:19:43;;;;;;;6.40;4.25;;;;;;;;;;5056325;28;20044;-82
2022/03/12 12:22:14;;;;;;;4.47;4.05;;;;;;;;;;5058678;28;20115;-84
2022/03/12 12:24:43;;;;;;;4.47;3.80;;;;;;;;;;5064321;28;20507;-81
2022/03/12 12:27:11;;;;;;;4.03;3.65;;;;;;;;;;5075291;28;20052;-83
2022/03/12 12:29:54;;;;;;;6.07;4.32;;;;;;;;;;5052858;28;20185;-83
2022/03/12 12:32:21;;;;;;;4.00;3.70;;;;;;;;;;5046617;28;20044;-81
2022/03/12 12:35:05;;;;;;;5.28;4.13;;;;;;;;;;5055632;28;20044;-85
2022/03/12 12:37:40;;;;;;;4.50;4.10;;;;;;;;;;5072557;28;20154;-80
2022/03/12 12:40:12;;;;;;;5.80;4.38;;;;;;;;;;5052840;28;20124;-81
2022/03/12 12:42:42;;;;;;;5.00;4.18;;;;;;;;;;5053124;28;20052;-79
2022/03/12 12:45:12;;;;;;;6.70;4.30;;;;;;;;;;5058836;28;20079;-80
2022/03/12 12:47:38;;;;;;;4.80;3.78;;;;;;;;;;5071386;28;20049;-80
2022/03/12 12:50:04;;;;;;;5.60;4.18;;;;;;;;;;5052836;28;20451;-80
2022/03/12 12:52:32;;;;;;;4.88;4.25;;;;;;;;;;5036442;28;20045;-80
2022/03/12 12:55:06;;;;;;;6.05;4.20;;;;;;;;;;5038725;28;20072;-79
2022/03/12 12:57:41;;;;;;;5.03;4.15;;;;;;;;;;5071598;28;20056;-80
2022/03/12 13:00:20;;;;;;;4.22;3.60;;;;;;;;;;5053923;28;20522;-80
2022/03/12 13:02:46;;;;;;;4.97;3.85;;;;;;;;;;5068239;28;20071;-80
2022/03/12 13:05:12;;;;;;;4.68;3.75;;;;;;;;;;5048857;28;20136;-80
2022/03/12 13:07:58;;;;;;;4.47;4.07;;;;;;;;;;5072336;28;20045;-80
2022/03/12 13:10:28;;;;;;;6.13;3.70;;;;;;;;;;5053795;28;20044;-80
2022/03/12 13:13:33;;;;;;;5.10;4.10;;;;;;;;;;5048437;28;20068;-80
2022/03/12 13:15:59;;;;;;;4.40;3.55;;;;;;;;;;4988620;28;20134;-81
2022/03/12 13:18:28;;;;;;;4.20;3.80;;;;;;;;;;4986965;28;20050;-81
2022/03/12 13:20:57;;;;;;;4.25;3.45;;;;;;;;;;5021114;28;20135;-81
2022/03/12 13:23:35;;;;;;;4.93;3.70;;;;;;;;;;5067918;28;20044;-81
2022/03/12 13:26:04;;;;;;;4.53;3.83;;;;;;;;;;5068438;28;20071;-81
2022/03/12 13:28:39;;;;;;;4.18;3.78;;;;;;;;;;5053220;28;20127;-82
2022/03/12 13:31:29;;;;;;;6.13;3.90;;;;;;;;;;5049890;28;20055;-81
2022/03/12 13:33:56;;;;;;;4.60;3.40;;;;;;;;;;5039623;28;20052;-81
2022/03/12 13:36:28;;;;;;;4.93;3.50;;;;;;;;;;5070304;28;20067;-80
2022/03/12 13:38:54;;;;;;;7.07;3.83;;;;;;;;;;5053628;28;20143;-82
2022/03/12 13:41:21;;;;;;;5.20;3.83;;;;;;;;;;5071138;28;20040;-80
2022/03/12 13:43:49;;;;;;;4.32;3.92;;;;;;;;;;5070771;28;20040;-80
2022/03/12 13:46:15;;;;;;;4.30;3.90;;;;;;;;;;5047184;28;20044;-80
2022/03/12 13:48:41;;;;;;;5.07;4.00;;;;;;;;;;5069578;28;20044;-80
2022/03/12 13:51:08;;;;;;;5.82;4.10;;;;;;;;;;5066846;28;20503;-80
2022/03/12 13:53:34;;;;;;;5.25;4.07;;;;;;;;;;5067846;28;20499;-81
2022/03/12 13:56:15;;;;;;;3.92;3.60;;;;;;;;;;5066130;28;20033;-81
2022/03/12 13:58:42;;;;;;;5.47;4.22;;;;;;;;;;5074068;28;20044;-81
2022/03/12 14:01:09;;;;;;;4.38;3.97;;;;;;;;;;5049239;28;20833;-81
2022/03/12 14:03:45;;;;;;;4.10;3.70;;;;;;;;;;5050509;28;20509;-80
2022/03/12 14:06:28;;;;;;;5.55;4.28;;;;;;;;;;5051681;28;20052;-81
2022/03/12 14:08:58;;;;;;;4.07;3.75;;;;;;;;;;5025353;28;20110;-80
2022/03/12 14:11:34;;;;;;;4.05;3.50;;;;;;;;;;5067687;28;20044;-81
2022/03/12 14:14:02;;;;;;;6.00;4.25;;;;;;;;;;5055325;28;20123;-81
2022/03/12 14:16:28;;;;;;;3.80;3.45;;;;;;;;;;5069134;28;20150;-81
2022/03/12 14:19:00;;;;;;;4.93;3.38;;;;;;;;;;5070670;28;20040;-81
2022/03/12 14:21:48;;;;;;;3.83;3.38;;;;;;;;;;5052669;28;20160;-80
2022/03/12 14:24:16;;;;;;;4.40;4.00;;;;;;;;;;5052999;28;20055;-77
2022/03/12 14:26:49;;;;;;;3.30;3.00;;;;;;;;;;5051567;28;20091;-83
2022/03/12 14:29:16;;;;;;;4.90;3.30;;;;;;;;;;5068444;28;20078;-91
2022/03/12 14:31:43;;;;;;;4.78;3.53;;;;;;;;;;5051668;28;20453;-84
2022/03/12 14:34:10;;;;;;;4.20;3.40;;;;;;;;;;5043675;28;20036;-84
2022/03/12 14:36:37;;;;;;;3.97;3.10;;;;;;;;;;5066099;28;20053;-86
2022/03/12 14:39:04;;;;;;;6.10;3.10;;;;;;;;;;5058033;28;20032;-79
2022/03/12 14:41:30;;;;;;;3.00;2.80;;;;;;;;;;5073495;28;20164;-78
2022/03/12 14:43:56;;;;;;;3.13;2.80;;;;;;;;;;5046769;28;20056;-80
2022/03/12 14:46:25;;;;;;;2.38;2.20;;;;;;;;;;5067250;28;20057;-78
2022/03/12 14:48:51;;;;;;;3.20;2.90;;;;;;;;;;5055117;28;20048;-80
2022/03/12 14:51:18;;;;;;;4.35;2.83;;;;;;;;;;5068684;28;20404;-78